createdAt,value
2023-04-04T00:00:43.964Z,26.32
2023-04-04T00:03:12.061Z,26.32
2023-04-04T00:05:40.046Z,26.31
2023-04-04T00:08:08.070Z,26.24
2023-04-04T00:10:37.514Z,26.32
2023-04-04T00:13:05.958Z,26.31
2023-04-04T00:15:34.665Z,26.30
2023-04-04T00:18:03.969Z,26.29
2023-04-04T00:20:32.373Z,26.29
2023-04-04T00:23:00.609Z,26.28
2023-04-04T00:25:28.845Z,26.28
2023-04-04T00:28:00.906Z,26.27
2023-04-04T00:30:29.662Z,26.28
2023-04-04T00:32:58.166Z,26.25
2023-04-04T00:35:26.354Z,26.27
2023-04-04T00:37:54.430Z,26.26
2023-04-04T00:40:22.573Z,26.27
2023-04-04T00:42:51.134Z,26.27
2023-04-04T00:45:20.745Z,26.27
2023-04-04T00:47:50.208Z,26.28
2023-04-04T00:50:18.582Z,26.27
2023-04-04T00:52:46.591Z,26.28
2023-04-04T00:55:14.641Z,26.28
2023-04-04T00:57:43.366Z,26.28
2023-04-04T01:00:15.309Z,26.29
2023-04-04T01:02:44.688Z,26.28
2023-04-04T01:05:13.596Z,26.09
2023-04-04T01:07:42.916Z,26.29
2023-04-04T01:10:13.278Z,26.28
2023-04-04T01:12:43.338Z,26.28
2023-04-04T01:15:12.426Z,26.29
2023-04-04T01:17:41.940Z,26.28
2023-04-04T01:20:15.904Z,26.28
2023-04-04T01:22:52.098Z,26.26
2023-04-04T01:25:27.212Z,26.25
2023-04-04T01:27:58.254Z,26.24
2023-04-04T01:30:29.976Z,26.27
2023-04-04T01:33:02.858Z,26.28
2023-04-04T01:35:37.938Z,26.27
2023-04-04T01:38:15.825Z,26.28
2023-04-04T01:40:50.453Z,26.28
2023-04-04T01:43:19.797Z,26.28
2023-04-04T01:45:47.968Z,26.27
2023-04-04T01:48:16.750Z,26.25
2023-04-04T01:50:48.314Z,26.25
2023-04-04T01:53:17.043Z,26.20
2023-04-04T01:55:46.652Z,26.27
2023-04-04T01:58:17.657Z,26.25
2023-04-04T02:00:45.859Z,26.27
2023-04-04T02:03:13.802Z,26.28
2023-04-04T02:05:42.156Z,26.28
2023-04-04T02:08:12.242Z,26.30
2023-04-04T02:10:50.410Z,26.28
2023-04-04T02:13:18.467Z,26.30
2023-04-04T02:15:47.536Z,26.31
2023-04-04T02:18:16.311Z,26.33
2023-04-04T02:20:44.313Z,26.33
2023-04-04T02:23:12.230Z,26.32
2023-04-04T02:25:40.236Z,26.32
2023-04-04T02:28:11.485Z,26.32
2023-04-04T02:30:39.835Z,26.33
2023-04-04T02:33:08.210Z,26.32
2023-04-04T02:35:36.515Z,26.32
2023-04-04T02:38:04.505Z,26.32
2023-04-04T02:40:42.746Z,26.32
2023-04-04T02:43:12.631Z,26.32
2023-04-04T02:45:41.728Z,26.32
2023-04-04T02:48:19.042Z,26.31
2023-04-04T02:50:50.241Z,26.31
2023-04-04T02:53:18.449Z,26.32
2023-04-04T02:55:48.940Z,26.30
2023-04-04T02:58:18.483Z,26.34
2023-04-04T03:00:47.273Z,26.32
2023-04-04T03:03:15.777Z,26.31
2023-04-04T03:05:46.985Z,26.30
2023-04-04T03:08:15.007Z,26.29
2023-04-04T03:10:43.209Z,26.33
2023-04-04T03:13:11.191Z,26.32
2023-04-04T03:15:41.881Z,26.31
2023-04-04T03:18:10.027Z,26.31
2023-04-04T03:20:38.273Z,26.30
2023-04-04T03:23:06.539Z,26.30
2023-04-04T03:25:34.605Z,26.31
2023-04-04T03:28:09.817Z,26.32
2023-04-04T03:30:38.197Z,26.30
2023-04-04T03:33:08.718Z,26.32
2023-04-04T03:35:39.705Z,26.32
2023-04-04T03:38:08.012Z,26.32
2023-04-04T03:40:36.619Z,26.32
2023-04-04T03:43:11.296Z,26.32
2023-04-04T03:45:39.983Z,26.32
2023-04-04T03:48:11.082Z,26.32
2023-04-04T03:50:40.725Z,26.31
2023-04-04T03:53:09.164Z,26.28
2023-04-04T03:55:37.218Z,26.27
2023-04-04T03:58:05.886Z,26.31
2023-04-04T04:00:33.849Z,26.27
2023-04-04T04:03:01.953Z,26.31
2023-04-04T04:05:32.445Z,26.32
2023-04-04T04:08:00.355Z,26.31
2023-04-04T04:10:28.400Z,26.32
2023-04-04T04:12:57.045Z,26.31
2023-04-04T04:15:25.243Z,26.30
2023-04-04T04:17:53.916Z,26.28
2023-04-04T04:20:22.803Z,26.28
2023-04-04T04:22:55.328Z,26.29
2023-04-04T04:25:23.810Z,26.29
2023-04-04T04:28:03.842Z,26.29
2023-04-04T04:30:32.714Z,26.31
2023-04-04T04:33:00.911Z,26.31
2023-04-04T04:35:37.824Z,26.28
2023-04-04T04:38:07.779Z,26.17
2023-04-04T04:40:36.698Z,26.31
2023-04-04T04:43:14.489Z,26.31
2023-04-04T04:45:43.224Z,26.32
2023-04-04T04:48:13.115Z,26.29
2023-04-04T04:50:48.793Z,26.34
2023-04-04T04:53:26.574Z,26.34
2023-04-04T04:55:54.664Z,26.35
2023-04-04T04:58:24.463Z,26.36
2023-04-04T05:00:57.911Z,26.37
2023-04-04T05:03:32.442Z,26.36
2023-04-04T05:06:01.735Z,26.33
2023-04-04T05:08:31.649Z,26.42
2023-04-04T05:11:19.868Z,26.41
2023-04-04T05:13:48.386Z,26.39
2023-04-04T05:16:16.735Z,26.43
2023-04-04T05:18:47.669Z,26.45
2023-04-04T05:21:16.254Z,26.45
2023-04-04T05:23:48.570Z,26.46
2023-04-04T05:26:18.255Z,26.43
2023-04-04T05:28:50.366Z,26.46
2023-04-04T05:31:18.861Z,26.47
2023-04-04T05:33:47.251Z,26.44
2023-04-04T05:36:32.384Z,26.49
2023-04-04T05:39:07.256Z,26.48
2023-04-04T05:41:39.951Z,26.50
2023-04-04T05:44:16.186Z,26.50
2023-04-04T05:46:44.455Z,26.50
2023-04-04T05:49:12.758Z,26.51
2023-04-04T05:51:45.865Z,26.52
2023-04-04T05:54:17.966Z,26.55
2023-04-04T05:56:47.610Z,26.56
2023-04-04T05:59:36.688Z,26.56
2023-04-04T06:02:07.776Z,26.58
2023-04-04T06:04:41.032Z,26.59
2023-04-04T06:07:11.257Z,26.59
2023-04-04T06:09:41.237Z,26.60
2023-04-04T06:12:10.066Z,26.60
2023-04-04T06:14:38.848Z,26.61
2023-04-04T06:17:08.616Z,26.60
2023-04-04T06:19:36.865Z,26.62
2023-04-04T06:22:05.034Z,26.17
2023-04-04T06:24:37.473Z,26.62
2023-04-04T06:27:07.417Z,26.45
2023-04-04T06:29:36.821Z,26.63
2023-04-04T06:32:06.717Z,26.62
2023-04-04T06:34:40.853Z,26.62
2023-04-04T06:37:10.338Z,26.61
2023-04-04T06:39:56.589Z,26.61
2023-04-04T06:42:29.287Z,26.62
2023-04-04T06:45:00.404Z,26.62
2023-04-04T06:47:28.840Z,26.62
2023-04-04T06:49:56.869Z,26.65
2023-04-04T06:52:26.649Z,26.64
2023-04-04T06:54:54.653Z,26.63
2023-04-04T06:57:22.670Z,26.62
2023-04-04T06:59:52.114Z,26.57
2023-04-04T07:02:20.191Z,26.62
2023-04-04T07:04:48.188Z,26.63
2023-04-04T07:07:16.190Z,26.63
2023-04-04T07:09:44.261Z,26.65
2023-04-04T07:12:12.276Z,26.68
2023-04-04T07:14:40.242Z,26.69
2023-04-04T07:17:21.254Z,26.75
2023-04-04T07:19:49.776Z,26.79
2023-04-04T07:22:17.723Z,26.81
2023-04-04T07:24:45.800Z,26.83
2023-04-04T07:27:15.333Z,26.85
2023-04-04T07:29:43.507Z,26.87
2023-04-04T07:32:12.936Z,26.88
2023-04-04T07:34:40.949Z,26.89
2023-04-04T07:37:08.946Z,26.92
2023-04-04T07:39:36.956Z,26.93
2023-04-04T07:42:05.122Z,26.97
2023-04-04T07:44:33.161Z,27.00
2023-04-04T07:47:09.383Z,27.01
2023-04-04T07:49:39.426Z,27.00
2023-04-04T07:52:07.557Z,27.00
2023-04-04T07:54:35.521Z,27.01
2023-04-04T07:57:05.553Z,27.04
2023-04-04T07:59:33.708Z,27.01
2023-04-04T08:02:01.731Z,27.06
2023-04-04T08:04:29.915Z,27.07
2023-04-04T08:06:59.278Z,27.08
2023-04-04T08:09:31.343Z,27.10
2023-04-04T08:11:59.466Z,27.11
2023-04-04T08:14:27.587Z,27.07
2023-04-04T08:16:55.867Z,27.16
2023-04-04T08:19:23.934Z,27.19
2023-04-04T08:21:51.940Z,27.21
2023-04-04T08:24:22.387Z,27.24
2023-04-04T08:26:58.197Z,27.27
2023-04-04T08:29:32.963Z,27.28
2023-04-04T08:32:01.290Z,27.29
2023-04-04T08:34:29.608Z,27.29
2023-04-04T08:36:58.065Z,27.27
2023-04-04T08:39:28.161Z,27.31
2023-04-04T08:42:03.375Z,27.32
2023-04-04T08:44:31.797Z,27.33
2023-04-04T08:47:01.221Z,27.34
2023-04-04T08:49:33.275Z,27.36
2023-04-04T08:52:04.008Z,27.20
2023-04-04T08:54:35.724Z,27.39
2023-04-04T08:57:04.112Z,27.40
2023-04-04T08:59:32.712Z,27.40
2023-04-04T09:02:06.396Z,27.41
2023-04-04T09:04:34.728Z,27.42
2023-04-04T09:07:05.172Z,27.42
2023-04-04T09:09:34.977Z,27.42
2023-04-04T09:12:03.625Z,27.37
2023-04-04T09:14:32.014Z,27.42
2023-04-04T09:17:00.286Z,27.41
2023-04-04T09:19:28.851Z,27.41
2023-04-04T09:21:56.964Z,27.42
2023-04-04T09:24:25.007Z,27.41
2023-04-04T09:26:54.947Z,27.42
2023-04-04T09:29:23.478Z,27.43
2023-04-04T09:31:52.186Z,27.44
2023-04-04T09:34:21.642Z,27.42
2023-04-04T09:36:49.773Z,27.42
2023-04-04T09:39:17.827Z,27.42
2023-04-04T09:41:46.567Z,27.31
2023-04-04T09:44:17.461Z,27.39
2023-04-04T09:46:45.495Z,27.38
2023-04-04T09:49:20.612Z,27.37
2023-04-04T09:51:50.501Z,27.40
2023-04-04T09:54:29.599Z,27.42
2023-04-04T09:56:59.088Z,27.42
2023-04-04T09:59:29.912Z,27.42
2023-04-04T10:01:58.061Z,27.44
2023-04-04T10:04:27.238Z,27.46
2023-04-04T10:06:56.367Z,27.49
2023-04-04T10:09:24.618Z,27.50
2023-04-04T10:11:53.089Z,27.53
2023-04-04T10:14:37.196Z,27.54
2023-04-04T10:17:10.429Z,27.53
2023-04-04T10:19:39.450Z,27.53
2023-04-04T10:22:07.647Z,27.52
2023-04-04T10:24:36.246Z,27.54
2023-04-04T10:27:04.603Z,27.53
2023-04-04T10:29:32.790Z,27.53
2023-04-04T10:32:06.280Z,27.50
2023-04-04T10:34:48.657Z,27.56
2023-04-04T10:37:27.108Z,27.57
2023-04-04T10:40:02.659Z,27.56
2023-04-04T10:42:40.013Z,27.58
2023-04-04T10:45:19.884Z,27.55
2023-04-04T10:47:51.754Z,27.57
2023-04-04T10:50:21.360Z,27.39
2023-04-04T10:52:50.481Z,27.58
2023-04-04T10:55:20.482Z,27.59
2023-04-04T10:57:52.632Z,27.59
2023-04-04T11:00:23.608Z,27.60
2023-04-04T11:02:57.119Z,27.56
2023-04-04T11:05:27.376Z,27.58
2023-04-04T11:10:33.026Z,27.58
2023-04-04T11:13:12.681Z,27.60
2023-04-04T11:15:54.300Z,27.62
2023-04-04T11:18:33.010Z,27.62
2023-04-04T11:21:03.403Z,27.64
2023-04-04T11:24:16.575Z,27.65
2023-04-04T11:26:45.629Z,27.63
2023-04-04T11:29:24.032Z,27.66
2023-04-04T11:31:52.436Z,27.63
2023-04-04T11:34:34.084Z,27.64
2023-04-04T11:37:17.667Z,27.52
2023-04-04T11:39:56.619Z,27.63
2023-04-04T11:42:24.965Z,27.65
2023-04-04T11:45:07.553Z,27.68
2023-04-04T11:47:35.716Z,27.63
2023-04-04T11:50:10.780Z,27.69
2023-04-04T11:52:39.527Z,27.67
2023-04-04T11:55:17.211Z,27.69
2023-04-04T11:57:45.185Z,27.70
2023-04-04T12:00:16.103Z,27.73
2023-04-04T12:02:44.296Z,27.73
2023-04-04T12:05:14.656Z,27.74
2023-04-04T12:07:43.494Z,27.57
2023-04-04T12:10:12.209Z,27.71
2023-04-04T12:12:41.691Z,27.73
2023-04-04T12:15:17.298Z,27.73
2023-04-04T12:17:49.120Z,27.72
2023-04-04T12:20:19.017Z,27.72
2023-04-04T12:22:50.900Z,27.72
2023-04-04T12:25:21.100Z,27.71
2023-04-04T12:27:49.941Z,27.71
2023-04-04T12:30:19.015Z,27.68
2023-04-04T12:32:48.494Z,27.70
2023-04-04T12:35:18.749Z,27.68
2023-04-04T12:38:07.252Z,27.67
2023-04-04T12:40:38.156Z,27.63
2023-04-04T12:43:07.799Z,27.53
2023-04-04T12:45:40.360Z,27.57
2023-04-04T12:48:14.146Z,27.62
2023-04-04T12:50:57.179Z,27.60
2023-04-04T12:56:16.269Z,27.54
2023-04-04T12:58:48.306Z,27.53
2023-04-04T13:01:17.457Z,27.51
2023-04-04T13:03:45.528Z,27.44
2023-04-04T13:06:17.527Z,27.47
2023-04-04T13:08:53.026Z,27.46
2023-04-04T13:11:21.758Z,27.45
2023-04-04T13:13:49.803Z,27.44
2023-04-04T13:16:32.189Z,27.44
2023-04-04T13:19:00.934Z,27.34
2023-04-04T13:21:30.867Z,27.43
2023-04-04T13:23:59.282Z,27.42
2023-04-04T13:26:27.731Z,27.45
2023-04-04T13:28:55.939Z,27.46
2023-04-04T13:31:24.418Z,27.48
2023-04-04T13:33:52.483Z,27.48
2023-04-04T13:36:20.548Z,27.48
2023-04-04T13:38:49.921Z,27.51
2023-04-04T13:41:17.870Z,27.54
2023-04-04T13:43:45.870Z,27.53
2023-04-04T13:46:13.859Z,27.54
2023-04-04T13:48:41.913Z,27.59
2023-04-04T13:51:09.835Z,27.58
2023-04-04T13:53:37.904Z,27.54
2023-04-04T13:58:38.747Z,27.60
2023-04-04T14:01:07.090Z,27.58
2023-04-04T14:03:35.522Z,27.58
2023-04-04T14:06:09.932Z,27.58
2023-04-04T14:08:39.422Z,27.55
2023-04-04T14:11:08.988Z,27.56
2023-04-04T14:13:37.291Z,27.55
2023-04-04T14:16:05.460Z,27.51
2023-04-04T14:18:34.515Z,27.57
2023-04-04T14:21:03.055Z,27.55
2023-04-04T14:23:31.710Z,27.58
2023-04-04T14:25:59.861Z,27.60
2023-04-04T14:28:29.648Z,27.39
2023-04-04T14:30:57.579Z,27.61
2023-04-04T14:33:26.298Z,27.63
2023-04-04T14:35:54.182Z,27.66
2023-04-04T14:38:22.268Z,27.71
2023-04-04T14:40:50.241Z,27.71
2023-04-04T14:43:18.211Z,27.77
2023-04-04T14:45:47.789Z,27.78
2023-04-04T14:48:15.784Z,27.78
2023-04-04T14:50:43.905Z,27.75
2023-04-04T14:53:12.116Z,27.76
2023-04-04T14:55:40.288Z,27.75
2023-04-04T14:58:08.516Z,27.75
2023-04-04T15:00:36.430Z,27.73
2023-04-04T15:03:08.342Z,27.76
2023-04-04T15:05:36.559Z,27.76
2023-04-04T15:08:05.330Z,27.77
2023-04-04T15:10:33.319Z,27.77
2023-04-04T15:13:01.411Z,27.75
2023-04-04T15:15:30.072Z,27.74
2023-04-04T15:17:58.157Z,27.72
2023-04-04T15:20:27.803Z,27.68
2023-04-04T15:22:55.811Z,27.65
2023-04-04T15:25:24.015Z,27.63
2023-04-04T15:27:52.056Z,27.61
2023-04-04T15:30:20.239Z,27.60
2023-04-04T15:32:48.294Z,27.59
2023-04-04T15:35:18.821Z,27.58
2023-04-04T15:37:49.170Z,27.55
2023-04-04T15:40:17.592Z,27.56
2023-04-04T15:42:46.382Z,27.56
2023-04-04T15:45:15.273Z,27.56
2023-04-04T15:47:44.973Z,27.58
2023-04-04T15:50:13.413Z,27.42
2023-04-04T15:52:41.826Z,27.60
2023-04-04T15:55:17.218Z,27.61
2023-04-04T15:57:46.874Z,27.60
2023-04-04T16:00:16.913Z,27.63
2023-04-04T16:02:45.084Z,27.64
2023-04-04T16:05:13.182Z,27.64
2023-04-04T16:07:41.205Z,27.63
2023-04-04T16:10:10.604Z,27.62
2023-04-04T16:12:40.030Z,27.60
2023-04-04T16:15:09.405Z,27.62
2023-04-04T16:17:37.587Z,27.60
2023-04-04T16:20:07.430Z,27.60
2023-04-04T16:22:35.467Z,27.55
2023-04-04T16:25:03.677Z,27.47
2023-04-04T16:27:31.663Z,27.55
2023-04-04T16:30:01.217Z,27.55
2023-04-04T16:32:29.217Z,27.53
2023-04-04T16:34:57.178Z,27.52
2023-04-04T16:37:25.182Z,27.50
2023-04-04T16:39:53.269Z,27.48
2023-04-04T16:42:21.366Z,27.49
2023-04-04T16:44:49.920Z,27.49
2023-04-04T16:47:19.197Z,27.49
2023-04-04T16:49:48.960Z,27.48
2023-04-04T16:52:17.085Z,27.38
2023-04-04T16:54:45.088Z,27.47
2023-04-04T16:57:13.246Z,27.46
2023-04-04T16:59:41.351Z,27.45
2023-04-04T17:02:09.587Z,27.45
2023-04-04T17:04:41.634Z,27.45
2023-04-04T17:07:10.260Z,27.44
2023-04-04T17:09:38.597Z,27.45
2023-04-04T17:12:07.476Z,27.43
2023-04-04T17:14:35.598Z,27.24
2023-04-04T17:17:05.336Z,27.44
2023-04-04T17:19:35.242Z,27.45
2023-04-04T17:22:04.837Z,27.43
2023-04-04T17:24:33.371Z,27.45
2023-04-04T17:27:02.502Z,27.43
2023-04-04T17:29:30.883Z,27.44
2023-04-04T17:31:59.689Z,27.44
2023-04-04T17:34:28.250Z,27.25
2023-04-04T17:36:56.742Z,27.36
2023-04-04T17:39:26.304Z,27.43
2023-04-04T17:41:54.630Z,27.22
2023-04-04T17:44:22.954Z,27.41
2023-04-04T17:46:51.229Z,27.39
2023-04-04T17:49:20.150Z,27.39
2023-04-04T17:51:48.880Z,27.40
2023-04-04T17:54:17.273Z,27.39
2023-04-04T17:56:46.935Z,27.39
2023-04-04T17:59:16.593Z,27.36
2023-04-04T18:01:44.957Z,27.35
2023-04-04T18:04:13.176Z,27.35
2023-04-04T18:06:41.919Z,27.32
2023-04-04T18:09:10.545Z,27.34
2023-04-04T18:11:40.150Z,27.33
2023-04-04T18:14:09.676Z,27.32
2023-04-04T18:16:40.359Z,27.30
2023-04-04T18:19:09.498Z,27.20
2023-04-04T18:21:38.065Z,27.32
2023-04-04T18:24:07.946Z,27.26
2023-04-04T18:26:36.010Z,27.33
2023-04-04T18:29:04.063Z,27.32
2023-04-04T18:31:33.678Z,27.32
2023-04-04T18:34:01.937Z,27.31
2023-04-04T18:36:29.868Z,27.30
2023-04-04T18:38:57.808Z,27.30
2023-04-04T18:41:25.899Z,27.29
2023-04-04T18:43:54.026Z,27.27
2023-04-04T18:46:22.072Z,27.24
2023-04-04T18:48:51.607Z,27.22
2023-04-04T18:51:22.079Z,27.21
2023-04-04T18:53:50.991Z,27.19
2023-04-04T18:56:19.016Z,27.18
2023-04-04T18:58:47.064Z,27.17
2023-04-04T19:01:16.349Z,27.16
2023-04-04T19:03:47.040Z,27.15
2023-04-04T19:06:16.652Z,27.13
2023-04-04T19:08:45.540Z,27.10
2023-04-04T19:11:14.150Z,27.08
2023-04-04T19:13:42.012Z,27.05
2023-04-04T19:16:10.022Z,27.04
2023-04-04T19:18:38.146Z,27.02
2023-04-04T19:21:07.582Z,27.02
2023-04-04T19:23:38.212Z,27.01
2023-04-04T19:26:07.355Z,27.00
2023-04-04T19:28:35.575Z,26.98
2023-04-04T19:31:06.364Z,26.97
2023-04-04T19:33:34.680Z,26.96
2023-04-04T19:36:09.161Z,26.95
2023-04-04T19:38:40.058Z,26.96
2023-04-04T19:41:12.553Z,26.96
2023-04-04T19:43:43.098Z,26.97
2023-04-04T19:46:12.329Z,26.98
2023-04-04T19:48:46.085Z,26.95
2023-04-04T19:51:37.566Z,26.98
2023-04-04T19:54:09.389Z,26.95
2023-04-04T19:56:37.449Z,26.94
2023-04-04T19:59:08.080Z,26.94
2023-04-04T20:01:42.652Z,26.93
2023-04-04T20:04:15.577Z,26.81
2023-04-04T20:06:43.727Z,26.93
2023-04-04T20:09:34.789Z,26.91
2023-04-04T20:12:02.938Z,26.85
2023-04-04T20:14:31.038Z,26.87
2023-04-04T20:16:58.974Z,26.84
2023-04-04T20:19:28.765Z,26.82
2023-04-04T20:21:57.109Z,26.81
2023-04-04T20:24:26.621Z,26.80
2023-04-04T20:26:56.869Z,26.78
2023-04-04T20:29:27.412Z,26.79
2023-04-04T20:31:57.569Z,26.78
2023-04-04T20:34:50.629Z,26.78
2023-04-04T20:37:21.976Z,26.76
2023-04-04T20:39:54.700Z,26.76
2023-04-04T20:42:38.196Z,26.74
2023-04-04T20:45:42.641Z,26.75
2023-04-04T20:48:34.633Z,26.73
2023-04-04T20:51:02.921Z,26.71
2023-04-04T20:53:32.743Z,26.72
2023-04-04T20:56:02.383Z,26.21
2023-04-04T20:58:31.907Z,26.76
2023-04-04T21:01:01.832Z,26.67
2023-04-04T21:03:35.860Z,26.75
2023-04-04T21:06:12.615Z,26.76
2023-04-04T21:08:45.502Z,26.76
2023-04-04T21:11:21.899Z,26.75
2023-04-04T21:13:50.095Z,26.75
2023-04-04T21:16:21.777Z,26.74
2023-04-04T21:18:49.810Z,26.38
2023-04-04T21:21:18.948Z,26.74
2023-04-04T21:23:52.746Z,26.74
2023-04-04T21:26:37.624Z,26.74
2023-04-04T21:29:07.291Z,26.71
2023-04-04T21:31:37.874Z,26.68
2023-04-04T21:34:11.994Z,26.62
2023-04-04T21:36:40.908Z,26.66
2023-04-04T21:39:12.677Z,26.67
2023-04-04T21:41:44.104Z,26.67
2023-04-04T21:44:12.224Z,26.65
2023-04-04T21:46:41.998Z,26.65
2023-04-04T21:49:10.378Z,26.65
2023-04-04T21:51:38.473Z,26.65
2023-04-04T21:54:06.861Z,26.66
2023-04-04T21:56:35.025Z,26.67
2023-04-04T21:59:05.478Z,26.69
2023-04-04T22:01:33.567Z,26.66
2023-04-04T22:04:01.675Z,26.67
2023-04-04T22:06:31.024Z,26.63
2023-04-04T22:09:01.597Z,26.67
2023-04-04T22:11:30.165Z,26.66
2023-04-04T22:14:08.043Z,26.66
2023-04-04T22:16:39.672Z,26.64
2023-04-04T22:19:10.916Z,26.62
2023-04-04T22:21:39.478Z,26.63
2023-04-04T22:24:10.066Z,26.62
2023-04-04T22:26:41.668Z,26.60
2023-04-04T22:29:09.950Z,26.60
2023-04-04T22:31:39.447Z,26.40
2023-04-04T22:34:07.541Z,26.59
2023-04-04T22:36:35.576Z,26.57
2023-04-04T22:39:03.807Z,26.56
2023-04-04T22:41:31.792Z,26.41
2023-04-04T22:43:59.855Z,26.51
2023-04-04T22:46:29.377Z,26.50
2023-04-04T22:49:06.347Z,26.51
2023-04-04T22:51:43.092Z,26.50
2023-04-04T22:54:13.175Z,26.49
2023-04-04T22:56:41.737Z,26.48
2023-04-04T22:59:09.892Z,26.47
2023-04-04T23:01:37.989Z,26.46
2023-04-04T23:04:08.028Z,26.45
2023-04-04T23:06:38.452Z,26.45
2023-04-04T23:09:07.521Z,26.44
2023-04-04T23:11:35.520Z,26.43
2023-04-04T23:14:08.462Z,26.43
2023-04-04T23:16:36.653Z,26.42
2023-04-04T23:19:04.975Z,26.37
2023-04-04T23:21:34.434Z,26.42
2023-04-04T23:24:02.413Z,26.43
2023-04-04T23:26:31.241Z,26.24
2023-04-04T23:28:59.260Z,26.42
2023-04-04T23:31:27.551Z,26.42
2023-04-04T23:33:56.048Z,26.43
2023-04-04T23:36:24.095Z,26.41
2023-04-04T23:38:53.552Z,26.41
2023-04-04T23:41:21.521Z,26.39
2023-04-04T23:43:49.684Z,26.40
2023-04-04T23:46:17.716Z,26.41
2023-04-04T23:48:45.785Z,26.41
2023-04-04T23:51:13.748Z,26.40
2023-04-04T23:53:41.764Z,26.30
2023-04-04T23:56:10.993Z,26.38
2023-04-04T23:58:39.424Z,26.38
